createdAt,value
2022-08-31T00:00:36.105Z,99945.06
2022-08-31T00:03:23.840Z,99943.25
2022-08-31T00:05:58.430Z,99937.16
2022-08-31T00:08:27.315Z,99939.94
2022-08-31T00:10:55.628Z,99914.38
2022-08-31T00:13:25.587Z,99921.53
2022-08-31T00:15:54.916Z,99925.91
2022-08-31T00:18:23.250Z,99922.34
2022-08-31T00:20:51.982Z,99918.78
2022-08-31T00:23:19.397Z,99929.44
2022-08-31T00:25:48.768Z,99917.94
2022-08-31T00:28:18.028Z,99913.47
2022-08-31T00:30:46.516Z,99915.19
2022-08-31T00:33:16.596Z,99904.66
2022-08-31T00:35:44.783Z,99902.03
2022-08-31T00:38:13.189Z,99902.88
2022-08-31T00:40:46.732Z,99901.00
2022-08-31T00:43:49.922Z,99915.16
2022-08-31T00:46:28.965Z,99908.91
2022-08-31T00:49:21.655Z,99910.78
2022-08-31T00:52:19.583Z,99908.16
2022-08-31T00:55:12.410Z,99908.13
2022-08-31T00:57:45.264Z,99900.13
2022-08-31T01:00:24.762Z,99902.69
2022-08-31T01:02:54.564Z,99902.66
2022-08-31T01:05:26.147Z,99900.81
2022-08-31T01:07:54.585Z,99884.13
2022-08-31T01:10:29.225Z,99877.03
2022-08-31T01:12:59.001Z,99888.53
2022-08-31T01:15:30.169Z,99892.81
2022-08-31T01:18:02.732Z,99889.22
2022-08-31T01:21:00.531Z,99897.25
2022-08-31T01:23:35.331Z,99904.28
2022-08-31T01:26:04.994Z,99893.47
2022-08-31T01:28:32.716Z,99889.00
2022-08-31T01:31:14.228Z,99888.13
2022-08-31T01:33:42.204Z,99895.19
2022-08-31T01:36:14.297Z,99894.41
2022-08-31T01:38:45.113Z,99895.28
2022-08-31T01:41:13.683Z,99888.22
2022-08-31T01:43:41.957Z,99891.75
2022-08-31T01:46:13.340Z,99888.97
2022-08-31T01:48:44.841Z,99884.47
2022-08-31T01:51:16.855Z,99876.56
2022-08-31T01:53:48.555Z,99881.75
2022-08-31T01:56:27.101Z,99872.09
2022-08-31T01:58:57.614Z,99878.25
2022-08-31T02:01:49.967Z,99888.94
2022-08-31T02:04:23.306Z,99884.47
2022-08-31T02:06:59.465Z,99887.19
2022-08-31T02:09:30.363Z,99887.19
2022-08-31T02:11:59.667Z,99888.09
2022-08-31T02:14:27.124Z,99895.16
2022-08-31T02:16:54.627Z,99889.78
2022-08-31T02:19:21.960Z,99895.16
2022-08-31T02:21:49.344Z,99893.47
2022-08-31T02:24:17.697Z,99895.28
2022-08-31T02:26:44.950Z,99885.44
2022-08-31T02:29:12.483Z,99888.09
2022-08-31T02:31:40.070Z,99890.72
2022-08-31T02:34:07.518Z,99888.09
2022-08-31T02:36:35.789Z,99883.81
2022-08-31T02:39:05.941Z,99890.94
2022-08-31T02:41:34.399Z,99890.88
2022-08-31T02:44:02.613Z,99886.53
2022-08-31T02:46:31.000Z,99903.28
2022-08-31T02:49:18.568Z,99890.03
2022-08-31T02:51:46.756Z,99892.72
2022-08-31T02:54:14.653Z,99893.56
2022-08-31T02:56:42.554Z,99886.41
2022-08-31T02:59:10.815Z,99888.16
2022-08-31T03:01:39.952Z,99873.97
2022-08-31T03:04:07.907Z,99888.06
2022-08-31T03:06:35.371Z,99882.75
2022-08-31T03:09:03.523Z,99887.22
2022-08-31T03:11:31.263Z,99888.16
2022-08-31T03:13:59.438Z,99890.78
2022-08-31T03:16:27.507Z,99896.94
2022-08-31T03:18:55.615Z,99892.50
2022-08-31T03:21:23.024Z,99894.22
2022-08-31T03:23:51.287Z,99886.22
2022-08-31T03:26:18.891Z,99884.41
2022-08-31T03:28:47.374Z,99887.94
2022-08-31T03:31:33.796Z,99882.69
2022-08-31T03:34:02.948Z,99882.72
2022-08-31T03:36:30.653Z,99882.75
2022-08-31T03:38:58.205Z,99877.31
2022-08-31T03:41:26.723Z,99877.25
2022-08-31T03:43:54.585Z,99873.69
2022-08-31T03:46:23.751Z,99868.38
2022-08-31T03:48:51.488Z,99872.75
2022-08-31T03:51:20.188Z,99864.75
2022-08-31T03:53:47.715Z,99865.56
2022-08-31T03:56:19.304Z,99869.94
2022-08-31T03:58:49.045Z,99877.84
2022-08-31T04:01:37.077Z,99881.38
2022-08-31T04:04:23.499Z,99881.31
2022-08-31T04:07:10.734Z,99881.25
2022-08-31T04:10:07.915Z,99881.16
2022-08-31T04:13:04.730Z,99884.56
2022-08-31T04:15:51.798Z,99892.44
2022-08-31T04:18:39.344Z,99900.44
2022-08-31T04:21:26.152Z,99905.72
2022-08-31T04:23:55.030Z,99897.72
2022-08-31T04:26:28.195Z,99895.91
2022-08-31T04:28:56.779Z,99895.94
2022-08-31T04:31:27.135Z,99891.53
2022-08-31T04:33:56.497Z,99891.59
2022-08-31T04:36:28.663Z,99900.44
2022-08-31T04:39:01.245Z,99889.91
2022-08-31T04:41:32.665Z,99891.84
2022-08-31T04:44:02.319Z,99895.31
2022-08-31T04:46:31.681Z,99893.59
2022-08-31T04:48:59.571Z,99895.34
2022-08-31T04:51:35.882Z,99897.25
2022-08-31T04:54:11.479Z,99898.22
2022-08-31T04:56:42.601Z,99906.19
2022-08-31T04:59:15.182Z,99908.97
2022-08-31T05:01:59.475Z,99906.25
2022-08-31T05:04:50.145Z,99899.25
2022-08-31T05:07:17.866Z,99907.22
2022-08-31T05:09:45.772Z,99904.50
2022-08-31T05:12:13.274Z,99905.31
2022-08-31T05:14:40.782Z,99902.66
2022-08-31T05:17:18.614Z,99904.22
2022-08-31T05:19:46.232Z,99906.84
2022-08-31T05:22:15.800Z,99912.16
2022-08-31T05:24:44.660Z,99913.09
2022-08-31T05:27:13.336Z,99912.16
2022-08-31T05:29:41.616Z,99920.28
2022-08-31T05:32:32.243Z,99923.97
2022-08-31T05:35:03.389Z,99924.88
2022-08-31T05:37:31.128Z,99932.84
2022-08-31T05:39:58.993Z,99924.00
2022-08-31T05:42:26.757Z,99924.00
2022-08-31T05:44:54.668Z,99932.84
2022-08-31T05:47:21.993Z,99932.06
2022-08-31T05:49:50.322Z,99929.50
2022-08-31T05:52:25.030Z,99934.09
2022-08-31T05:54:54.747Z,99939.53
2022-08-31T05:57:26.306Z,99948.38
2022-08-31T05:59:54.198Z,99943.19
2022-08-31T06:02:22.130Z,99948.47
2022-08-31T06:04:52.156Z,99948.44
2022-08-31T06:07:21.679Z,99948.53
2022-08-31T06:09:56.889Z,99948.59
2022-08-31T06:12:26.211Z,99952.19
2022-08-31T06:14:55.419Z,99955.75
2022-08-31T06:17:24.261Z,99955.66
2022-08-31T06:19:52.001Z,99962.72
2022-08-31T06:22:20.278Z,99962.75
2022-08-31T06:24:48.748Z,99964.53
2022-08-31T06:27:17.618Z,99959.19
2022-08-31T06:29:46.209Z,99955.66
2022-08-31T06:32:15.618Z,99961.03
2022-08-31T06:34:50.887Z,99972.47
2022-08-31T06:37:36.698Z,99974.34
2022-08-31T06:40:18.092Z,99973.47
2022-08-31T06:43:18.400Z,99973.50
2022-08-31T06:46:02.267Z,99974.44
2022-08-31T06:48:33.310Z,99977.06
2022-08-31T06:51:01.136Z,99980.75
2022-08-31T06:53:29.848Z,99984.38
2022-08-31T06:56:20.310Z,99975.59
2022-08-31T06:59:14.594Z,99973.00
2022-08-31T07:02:02.459Z,99969.72
2022-08-31T07:04:39.117Z,99974.31
2022-08-31T07:07:11.314Z,99977.97
2022-08-31T07:09:41.565Z,99970.94
2022-08-31T07:12:09.837Z,99980.81
2022-08-31T07:14:37.603Z,99976.31
2022-08-31T07:17:07.673Z,99979.88
2022-08-31T07:19:35.388Z,99972.81
2022-08-31T07:22:09.166Z,99978.19
2022-08-31T07:24:40.570Z,99979.97
2022-08-31T07:27:18.375Z,99985.25
2022-08-31T07:30:00.268Z,99986.97
2022-08-31T07:32:31.035Z,99991.50
2022-08-31T07:35:01.021Z,99990.63
2022-08-31T07:37:51.692Z,99988.03
2022-08-31T07:40:43.308Z,99988.09
2022-08-31T07:43:13.894Z,99990.78
2022-08-31T07:45:42.554Z,99979.25
2022-08-31T07:48:12.436Z,99983.81
2022-08-31T07:50:57.538Z,99987.38
2022-08-31T07:53:42.099Z,99985.69
2022-08-31T07:56:34.612Z,99987.38
2022-08-31T07:59:18.703Z,99981.19
2022-08-31T08:01:48.655Z,99988.28
2022-08-31T08:04:25.151Z,99988.31
2022-08-31T08:07:12.728Z,99994.56
2022-08-31T08:10:14.084Z,99990.97
2022-08-31T08:13:05.897Z,99994.59
2022-08-31T08:15:47.914Z,99996.38
2022-08-31T08:18:29.255Z,99987.50
2022-08-31T08:21:00.337Z,99969.78
2022-08-31T08:23:29.159Z,99967.13
2022-08-31T08:26:21.636Z,99965.41
2022-08-31T08:29:08.646Z,99968.94
2022-08-31T08:31:46.832Z,99971.59
2022-08-31T08:34:14.196Z,99962.69
2022-08-31T08:36:41.506Z,99960.91
2022-08-31T08:39:13.054Z,99968.00
2022-08-31T08:41:47.107Z,99971.59
2022-08-31T08:44:18.870Z,99983.97
2022-08-31T08:47:00.898Z,99992.84
2022-08-31T08:49:53.620Z,99988.50
2022-08-31T08:52:41.335Z,99994.66
2022-08-31T08:55:24.107Z,99984.94
2022-08-31T08:57:56.157Z,99981.34
2022-08-31T09:00:28.569Z,99978.66
2022-08-31T09:03:15.163Z,99964.41
2022-08-31T09:06:15.788Z,99965.28
2022-08-31T09:09:38.125Z,99962.53
2022-08-31T09:12:30.864Z,99957.25
2022-08-31T09:16:10.054Z,99948.50
2022-08-31T09:18:47.782Z,99945.00
2022-08-31T09:21:39.995Z,99939.69
2022-08-31T09:24:14.036Z,99933.47
2022-08-31T09:27:20.226Z,99932.66
2022-08-31T09:30:01.701Z,99938.00
2022-08-31T09:32:36.085Z,99937.13
2022-08-31T09:35:28.456Z,99936.22
2022-08-31T09:38:17.981Z,99928.22
2022-08-31T09:40:49.749Z,99927.34
2022-08-31T09:43:38.503Z,99924.66
2022-08-31T09:46:11.677Z,99919.28
2022-08-31T09:48:58.264Z,99916.66
2022-08-31T09:51:37.281Z,99916.66
2022-08-31T09:54:33.555Z,99910.34
2022-08-31T09:57:08.342Z,99897.88
2022-08-31T09:59:47.934Z,99881.81
2022-08-31T10:02:26.722Z,99882.59
2022-08-31T10:05:27.859Z,99883.47
2022-08-31T10:08:11.370Z,99883.47
2022-08-31T10:10:42.973Z,99881.63
2022-08-31T10:13:40.436Z,99877.97
2022-08-31T10:16:27.654Z,99878.84
2022-08-31T10:19:28.453Z,99869.91
2022-08-31T10:22:05.448Z,99869.88
2022-08-31T10:24:48.598Z,99866.28
2022-08-31T10:27:32.207Z,99875.09
2022-08-31T10:30:35.001Z,99864.28
2022-08-31T10:33:19.176Z,99867.63
2022-08-31T10:36:00.275Z,99862.03
2022-08-31T10:38:40.850Z,99849.66
2022-08-31T10:41:17.042Z,99846.91
2022-08-31T10:44:08.501Z,99847.13
2022-08-31T10:46:35.875Z,99844.53
2022-08-31T10:49:05.020Z,99830.19
2022-08-31T10:52:18.282Z,99821.84
2022-08-31T10:55:33.533Z,99821.88
2022-08-31T10:58:43.719Z,99827.13
2022-08-31T11:01:47.365Z,99824.16
2022-08-31T11:05:07.464Z,99817.09
2022-08-31T11:07:56.080Z,99820.34
2022-08-31T11:10:57.238Z,99818.16
2022-08-31T11:13:51.863Z,99813.53
2022-08-31T11:16:43.777Z,99813.03
2022-08-31T11:19:54.518Z,99814.63
2022-08-31T11:23:05.539Z,99805.97
2022-08-31T11:25:51.115Z,99791.97
2022-08-31T11:28:49.897Z,99790.34
2022-08-31T11:31:30.132Z,99796.63
2022-08-31T11:34:28.222Z,99798.50
2022-08-31T11:37:04.959Z,99785.16
2022-08-31T11:39:46.110Z,99800.34
2022-08-31T11:42:42.494Z,99800.41
2022-08-31T11:45:34.521Z,99790.25
2022-08-31T11:48:02.086Z,99785.25
2022-08-31T11:50:57.599Z,99776.09
2022-08-31T11:53:44.300Z,99773.19
2022-08-31T11:56:14.447Z,99771.91
2022-08-31T11:58:44.782Z,99775.19
2022-08-31T12:01:12.032Z,99770.56
2022-08-31T12:04:03.258Z,99766.41
2022-08-31T12:06:40.214Z,99767.31
2022-08-31T12:09:35.349Z,99758.09
2022-08-31T12:12:27.916Z,99768.16
2022-08-31T12:15:33.160Z,99760.38
2022-08-31T12:18:44.122Z,99760.28
2022-08-31T12:21:42.200Z,99763.41
2022-08-31T12:24:43.793Z,99759.69
2022-08-31T12:27:39.379Z,99759.56
2022-08-31T12:30:21.662Z,99759.50
2022-08-31T12:33:15.489Z,99743.03
2022-08-31T12:35:46.270Z,99744.72
2022-08-31T12:38:26.421Z,99746.22
2022-08-31T12:40:57.431Z,99743.94
2022-08-31T12:43:44.835Z,99737.78
2022-08-31T12:47:00.923Z,99729.13
2022-08-31T12:50:02.626Z,99724.38
2022-08-31T12:56:48.870Z,99715.72
2022-08-31T13:00:00.045Z,99711.53
2022-08-31T13:02:32.968Z,99709.22
2022-08-31T13:05:01.131Z,99707.03
2022-08-31T13:07:35.360Z,99708.75
2022-08-31T13:10:33.859Z,99696.28
2022-08-31T13:13:10.374Z,99692.56
2022-08-31T13:15:43.919Z,99688.22
2022-08-31T13:18:24.665Z,99684.72
2022-08-31T13:21:03.902Z,99684.31
2022-08-31T13:23:39.858Z,99682.47
2022-08-31T13:26:25.303Z,99671.44
2022-08-31T13:29:04.692Z,99671.91
2022-08-31T13:31:46.662Z,99668.97
2022-08-31T13:34:14.937Z,99666.03
2022-08-31T13:36:59.682Z,99670.34
2022-08-31T13:39:35.056Z,99659.69
2022-08-31T13:42:35.415Z,99651.06
2022-08-31T13:45:13.247Z,99647.78
2022-08-31T13:47:41.746Z,99647.22
2022-08-31T13:50:28.146Z,99644.78
2022-08-31T13:55:49.568Z,99645.88
2022-08-31T13:58:32.426Z,99628.66
2022-08-31T14:01:26.490Z,99624.31
2022-08-31T14:03:58.972Z,99622.84
2022-08-31T14:06:34.742Z,99617.34
2022-08-31T14:09:16.852Z,99624.75
2022-08-31T14:12:04.311Z,99623.59
2022-08-31T14:14:41.802Z,99617.81
2022-08-31T14:17:16.400Z,99620.53
2022-08-31T14:19:45.081Z,99610.41
2022-08-31T14:22:35.447Z,99616.50
2022-08-31T14:25:04.900Z,99615.59
2022-08-31T14:27:39.078Z,99598.38
2022-08-31T14:30:09.333Z,99601.25
2022-08-31T14:32:36.640Z,99599.84
2022-08-31T14:35:11.714Z,99596.00
2022-08-31T14:37:44.061Z,99595.34
2022-08-31T14:40:13.760Z,99607.00
2022-08-31T14:42:44.256Z,99598.34
2022-08-31T14:45:21.082Z,99598.69
2022-08-31T14:47:52.224Z,99592.28
2022-08-31T14:50:25.419Z,99594.59
2022-08-31T14:52:55.002Z,99595.81
2022-08-31T14:55:25.197Z,99586.16
2022-08-31T14:58:05.079Z,99579.00
2022-08-31T15:00:34.729Z,99588.97
2022-08-31T15:03:02.205Z,99582.31
2022-08-31T15:05:29.710Z,99585.66
2022-08-31T15:07:57.117Z,99588.16
2022-08-31T15:10:26.069Z,99585.91
2022-08-31T15:12:54.142Z,99585.66
2022-08-31T15:15:21.836Z,99582.78
2022-08-31T15:17:51.921Z,99582.06
2022-08-31T15:20:22.681Z,99567.69
2022-08-31T15:22:50.645Z,99573.53
2022-08-31T15:25:18.798Z,99570.41
2022-08-31T15:27:46.728Z,99566.78
2022-08-31T15:30:19.913Z,99560.59
2022-08-31T15:32:48.774Z,99573.41
2022-08-31T15:35:23.312Z,99563.03
2022-08-31T15:37:55.234Z,99561.53
2022-08-31T15:40:23.829Z,99560.25
2022-08-31T15:42:53.893Z,99556.19
2022-08-31T15:45:23.649Z,99556.34
2022-08-31T15:48:09.863Z,99558.53
2022-08-31T15:50:37.693Z,99544.56
2022-08-31T15:53:09.945Z,99547.47
2022-08-31T15:55:40.479Z,99541.78
2022-08-31T15:58:09.837Z,99546.53
2022-08-31T16:00:41.755Z,99549.38
2022-08-31T16:03:09.447Z,99551.31
2022-08-31T16:05:39.421Z,99540.19
2022-08-31T16:08:10.727Z,99537.69
2022-08-31T16:10:46.988Z,99542.31
2022-08-31T16:13:16.125Z,99544.13
2022-08-31T16:15:52.630Z,99549.66
2022-08-31T16:18:22.210Z,99541.56
2022-08-31T16:20:50.433Z,99539.09
2022-08-31T16:23:18.897Z,99537.59
2022-08-31T16:25:48.333Z,99535.97
2022-08-31T16:28:20.685Z,99528.69
2022-08-31T16:30:51.131Z,99523.78
2022-08-31T16:33:20.153Z,99520.47
2022-08-31T16:35:47.771Z,99529.09
2022-08-31T16:38:16.068Z,99534.94
2022-08-31T16:40:44.170Z,99534.00
2022-08-31T16:43:11.698Z,99534.16
2022-08-31T16:45:41.089Z,99534.53
2022-08-31T16:48:29.715Z,99539.66
2022-08-31T16:51:01.949Z,99537.75
2022-08-31T16:53:31.141Z,99538.69
2022-08-31T16:55:59.916Z,99543.25
2022-08-31T16:58:50.741Z,99543.25
2022-08-31T17:01:26.279Z,99544.84
2022-08-31T17:03:57.645Z,99540.91
2022-08-31T17:06:35.036Z,99544.16
2022-08-31T17:09:14.547Z,99538.94
2022-08-31T17:11:49.095Z,99540.63
2022-08-31T17:14:35.463Z,99544.50
2022-08-31T17:17:06.565Z,99539.47
2022-08-31T17:19:36.955Z,99536.97
2022-08-31T17:22:08.316Z,99539.72
2022-08-31T17:24:43.065Z,99535.66
2022-08-31T17:27:13.268Z,99536.63
2022-08-31T17:29:47.974Z,99542.94
2022-08-31T17:32:20.988Z,99544.28
2022-08-31T17:34:51.242Z,99543.47
2022-08-31T17:37:25.062Z,99551.63
2022-08-31T17:39:53.082Z,99550.00
2022-08-31T17:42:23.199Z,99550.09
2022-08-31T17:44:52.309Z,99540.78
2022-08-31T17:47:22.797Z,99543.66
2022-08-31T17:49:52.465Z,99540.28
2022-08-31T17:52:21.387Z,99547.63
2022-08-31T17:54:51.084Z,99539.13
2022-08-31T17:57:25.799Z,99542.06
2022-08-31T17:59:54.899Z,99544.84
2022-08-31T18:02:32.375Z,99546.84
2022-08-31T18:05:02.295Z,99548.72
2022-08-31T18:07:30.056Z,99543.53
2022-08-31T18:09:57.618Z,99552.72
2022-08-31T18:12:25.648Z,99552.81
2022-08-31T18:14:54.113Z,99549.28
2022-08-31T18:17:22.355Z,99545.06
2022-08-31T18:19:49.832Z,99555.09
2022-08-31T18:22:18.248Z,99557.06
2022-08-31T18:24:46.033Z,99561.66
2022-08-31T18:27:17.352Z,99562.63
2022-08-31T18:29:45.734Z,99566.16
2022-08-31T18:32:14.480Z,99564.41
2022-08-31T18:34:47.330Z,99562.66
2022-08-31T18:37:25.855Z,99567.34
2022-08-31T18:40:12.227Z,99568.28
2022-08-31T18:42:58.322Z,99569.22
2022-08-31T18:45:28.056Z,99576.31
2022-08-31T18:48:24.885Z,99567.38
2022-08-31T18:50:50.034Z,99570.16
2022-08-31T18:53:27.517Z,99580.88
2022-08-31T18:56:07.781Z,99586.28
2022-08-31T18:58:37.225Z,99589.06
2022-08-31T19:01:11.185Z,99588.28
2022-08-31T19:03:40.969Z,99598.19
2022-08-31T19:06:16.725Z,99600.81
2022-08-31T19:08:45.458Z,99601.56
2022-08-31T19:11:13.312Z,99605.88
2022-08-31T19:13:42.260Z,99605.88
2022-08-31T19:16:25.524Z,99605.88
2022-08-31T19:18:58.549Z,99606.75
2022-08-31T19:21:31.620Z,99612.03
2022-08-31T19:24:05.102Z,99618.22
2022-08-31T19:27:02.355Z,99621.75
2022-08-31T19:29:31.416Z,99627.03
2022-08-31T19:32:02.857Z,99623.50
2022-08-31T19:34:34.840Z,99625.34
2022-08-31T19:37:03.327Z,99624.47
2022-08-31T19:39:37.231Z,99632.47
2022-08-31T19:42:08.075Z,99623.59
2022-08-31T19:44:54.938Z,99623.53
2022-08-31T19:47:25.685Z,99623.59
2022-08-31T19:49:53.262Z,99620.97
2022-08-31T19:52:20.887Z,99623.75
2022-08-31T19:54:49.829Z,99622.06
2022-08-31T19:57:17.689Z,99625.75
2022-08-31T19:59:45.093Z,99633.78
2022-08-31T20:02:14.387Z,99638.19
2022-08-31T20:04:45.308Z,99624.75
2022-08-31T20:07:16.714Z,99628.22
2022-08-31T20:09:44.362Z,99630.88
2022-08-31T20:12:11.997Z,99627.28
2022-08-31T20:14:39.284Z,99630.88
2022-08-31T20:17:09.841Z,99629.91
2022-08-31T20:19:39.717Z,99637.91
2022-08-31T20:22:07.945Z,99636.19
2022-08-31T20:24:44.806Z,99641.59
2022-08-31T20:27:18.519Z,99647.81
2022-08-31T20:29:46.588Z,99651.31
2022-08-31T20:32:13.909Z,99653.16
2022-08-31T20:34:44.668Z,99657.66
2022-08-31T20:37:13.144Z,99647.91
2022-08-31T20:39:42.291Z,99650.59
2022-08-31T20:42:09.656Z,99651.59
2022-08-31T20:44:38.355Z,99645.41
2022-08-31T20:47:29.129Z,99647.22
2022-08-31T20:50:01.106Z,99659.69
2022-08-31T20:52:32.960Z,99662.34
2022-08-31T20:55:03.389Z,99662.38
2022-08-31T20:57:37.681Z,99661.50
2022-08-31T21:00:10.092Z,99666.06
2022-08-31T21:02:41.139Z,99666.16
2022-08-31T21:05:37.367Z,99668.00
2022-08-31T21:07:58.260Z,99675.16
2022-08-31T21:10:36.661Z,99673.41
2022-08-31T21:13:12.406Z,99684.13
2022-08-31T21:15:47.288Z,99684.16
2022-08-31T21:18:17.380Z,99687.75
2022-08-31T21:20:46.412Z,99689.63
2022-08-31T21:23:14.069Z,99683.41
2022-08-31T21:25:45.278Z,99679.03
2022-08-31T21:28:17.444Z,99681.69
2022-08-31T21:30:49.039Z,99688.81
2022-08-31T21:33:17.078Z,99671.97
2022-08-31T21:35:44.537Z,99680.03
2022-08-31T21:38:13.098Z,99684.53
2022-08-31T21:40:49.647Z,99682.78
2022-08-31T21:43:17.056Z,99681.06
2022-08-31T21:45:44.356Z,99682.84
2022-08-31T21:48:11.606Z,99681.16
2022-08-31T21:50:38.868Z,99678.50
2022-08-31T21:53:06.277Z,99680.25
2022-08-31T21:55:38.602Z,99681.16
2022-08-31T21:58:05.841Z,99679.41
2022-08-31T22:00:34.349Z,99677.66
2022-08-31T22:03:02.395Z,99677.66
2022-08-31T22:05:30.890Z,99675.03
2022-08-31T22:07:58.199Z,99675.03
2022-08-31T22:10:25.612Z,99675.94
2022-08-31T22:12:52.850Z,99683.03
2022-08-31T22:15:23.981Z,99674.22
2022-08-31T22:18:18.354Z,99681.31
2022-08-31T22:20:42.229Z,99681.31
2022-08-31T22:23:11.341Z,99684.91
2022-08-31T22:25:38.932Z,99691.09
2022-08-31T22:28:07.315Z,99686.69
2022-08-31T22:30:36.284Z,99685.75
2022-08-31T22:33:04.563Z,99691.09
2022-08-31T22:35:32.105Z,99682.22
2022-08-31T22:37:59.392Z,99684.00
2022-08-31T22:40:29.582Z,99683.09
2022-08-31T22:42:58.556Z,99675.13
2022-08-31T22:45:26.148Z,99673.34
2022-08-31T22:47:53.603Z,99671.59
2022-08-31T22:50:20.888Z,99668.94
2022-08-31T22:52:48.132Z,99668.06
2022-08-31T22:55:15.414Z,99669.81
2022-08-31T22:57:43.085Z,99672.50
2022-08-31T23:00:14.550Z,99667.19
2022-08-31T23:02:45.226Z,99673.41
2022-08-31T23:05:16.218Z,99661.00
2022-08-31T23:07:43.701Z,99667.22
2022-08-31T23:10:18.373Z,99659.22
2022-08-31T23:12:52.011Z,99664.56
2022-08-31T23:15:23.105Z,99658.34
2022-08-31T23:17:51.722Z,99656.56
2022-08-31T23:20:24.302Z,99660.09
2022-08-31T23:22:55.267Z,99657.44
2022-08-31T23:25:24.613Z,99661.91
2022-08-31T23:27:53.341Z,99663.66
2022-08-31T23:30:24.733Z,99659.22
2022-08-31T23:32:53.352Z,99656.56
2022-08-31T23:35:22.038Z,99657.44
2022-08-31T23:37:49.924Z,99659.22
2022-08-31T23:40:17.474Z,99645.94
2022-08-31T23:42:44.979Z,99650.34
2022-08-31T23:45:12.682Z,99645.03
2022-08-31T23:47:40.612Z,99646.78
2022-08-31T23:50:10.056Z,99638.81
2022-08-31T23:52:41.294Z,99645.94
2022-08-31T23:55:11.522Z,99645.94
2022-08-31T23:57:39.864Z,99650.34
